createdAt,value
2022-10-28T00:01:17.992Z,5.23
2022-10-28T00:03:47.571Z,4.78
2022-10-28T00:06:20.865Z,5.00
2022-10-28T00:08:48.157Z,5.80
2022-10-28T00:11:27.347Z,5.10
2022-10-28T00:13:56.350Z,6.50
2022-10-28T00:16:26.044Z,5.65
2022-10-28T00:18:54.357Z,5.03
2022-10-28T00:21:25.178Z,5.05
2022-10-28T00:23:52.432Z,5.15
2022-10-28T00:26:21.837Z,4.55
2022-10-28T00:28:57.826Z,4.97
2022-10-28T00:31:26.782Z,4.70
2022-10-28T00:33:53.741Z,5.13
2022-10-28T00:36:26.236Z,4.10
2022-10-28T00:38:54.669Z,4.90
2022-10-28T00:41:36.929Z,4.50
2022-10-28T00:44:41.182Z,5.10
2022-10-28T00:47:16.698Z,4.77
2022-10-28T00:49:47.720Z,4.93
2022-10-28T00:52:20.131Z,4.57
2022-10-28T00:54:47.287Z,5.10
2022-10-28T00:57:18.603Z,4.80
2022-10-28T00:59:49.448Z,4.70
2022-10-28T01:02:16.880Z,4.60
2022-10-28T01:04:44.280Z,4.80
2022-10-28T01:07:11.188Z,4.77
2022-10-28T01:09:40.138Z,4.47
2022-10-28T01:12:47.280Z,4.82
2022-10-28T01:15:37.226Z,5.63
2022-10-28T01:18:25.117Z,4.57
2022-10-28T01:20:59.808Z,5.17
2022-10-28T01:23:54.362Z,4.97
2022-10-28T01:26:43.984Z,4.63
2022-10-28T01:30:08.105Z,5.20
2022-10-28T01:32:53.033Z,4.93
2022-10-28T01:35:20.150Z,5.13
2022-10-28T01:38:06.070Z,5.60
2022-10-28T01:40:45.171Z,6.20
2022-10-28T01:43:26.340Z,5.80
2022-10-28T01:46:24.962Z,4.90
2022-10-28T01:48:57.701Z,4.97
2022-10-28T01:51:35.589Z,5.23
2022-10-28T01:54:06.799Z,4.80
2022-10-28T01:56:40.813Z,4.63
2022-10-28T01:59:12.677Z,4.82
2022-10-28T02:01:39.525Z,4.93
2022-10-28T02:04:07.734Z,4.83
2022-10-28T02:06:34.947Z,5.15
2022-10-28T02:09:13.784Z,5.40
2022-10-28T02:12:02.304Z,4.40
2022-10-28T02:15:00.611Z,5.53
2022-10-28T02:17:52.242Z,4.80
2022-10-28T02:20:45.919Z,4.37
2022-10-28T02:23:45.789Z,4.57
2022-10-28T02:26:27.259Z,4.80
2022-10-28T02:29:03.679Z,4.80
2022-10-28T02:31:42.596Z,4.20
2022-10-28T02:34:16.048Z,4.13
2022-10-28T02:36:47.670Z,4.53
2022-10-28T02:39:17.369Z,4.20
2022-10-28T02:41:50.833Z,4.53
2022-10-28T02:44:24.057Z,4.57
2022-10-28T02:46:53.037Z,4.55
2022-10-28T02:49:20.119Z,4.70
2022-10-28T02:51:52.796Z,4.77
2022-10-28T02:54:24.151Z,4.47
2022-10-28T02:57:12.324Z,4.13
2022-10-28T02:59:38.874Z,3.70
2022-10-28T03:02:05.591Z,4.32
2022-10-28T03:04:32.248Z,4.30
2022-10-28T03:06:58.818Z,5.50
2022-10-28T03:09:25.937Z,4.03
2022-10-28T03:11:52.633Z,4.20
2022-10-28T03:14:21.136Z,4.25
2022-10-28T03:16:50.555Z,5.30
2022-10-28T03:19:17.299Z,5.00
2022-10-28T03:21:45.281Z,5.28
2022-10-28T03:24:11.897Z,4.60
2022-10-28T03:26:38.657Z,4.55
2022-10-28T03:29:05.272Z,4.85
2022-10-28T03:31:31.926Z,4.57
2022-10-28T03:33:58.503Z,4.25
2022-10-28T03:36:25.084Z,4.10
2022-10-28T03:38:51.657Z,4.33
2022-10-28T03:41:18.223Z,4.15
2022-10-28T03:43:45.117Z,3.78
2022-10-28T03:46:11.628Z,4.00
2022-10-28T03:48:40.083Z,3.70
2022-10-28T03:51:07.058Z,4.50
2022-10-28T03:53:33.585Z,4.00
2022-10-28T03:56:01.871Z,3.97
2022-10-28T03:58:29.210Z,4.00
2022-10-28T04:00:56.843Z,4.45
2022-10-28T04:03:26.126Z,4.55
2022-10-28T04:05:52.938Z,4.50
2022-10-28T04:08:19.937Z,8.13
2022-10-28T04:10:47.697Z,10.95
2022-10-28T04:13:15.510Z,10.53
2022-10-28T04:15:42.197Z,10.68
2022-10-28T04:18:09.025Z,9.40
2022-10-28T04:20:35.821Z,8.27
2022-10-28T04:23:02.982Z,7.00
2022-10-28T04:25:30.053Z,6.40
2022-10-28T04:27:56.869Z,5.72
2022-10-28T04:30:25.645Z,5.83
2022-10-28T04:32:52.552Z,5.57
2022-10-28T04:35:19.107Z,5.15
2022-10-28T04:37:45.902Z,5.60
2022-10-28T04:40:12.711Z,5.10
2022-10-28T04:42:39.299Z,5.20
2022-10-28T04:45:06.431Z,4.90
2022-10-28T04:47:33.030Z,4.55
2022-10-28T04:50:00.085Z,5.27
2022-10-28T04:52:26.606Z,4.30
2022-10-28T04:54:53.302Z,4.20
2022-10-28T04:57:19.977Z,4.57
2022-10-28T04:59:47.514Z,4.20
2022-10-28T05:02:15.382Z,4.27
2022-10-28T05:04:41.992Z,4.60
2022-10-28T05:07:09.425Z,5.22
2022-10-28T05:09:36.096Z,4.20
2022-10-28T05:12:02.637Z,3.70
2022-10-28T05:14:29.329Z,4.30
2022-10-28T05:16:56.017Z,4.40
2022-10-28T05:19:22.958Z,4.60
2022-10-28T05:21:49.477Z,5.70
2022-10-28T05:24:16.025Z,4.32
2022-10-28T05:26:44.015Z,4.87
2022-10-28T05:29:10.802Z,4.57
2022-10-28T05:31:37.364Z,4.53
2022-10-28T05:34:03.830Z,4.85
2022-10-28T05:36:30.312Z,4.97
2022-10-28T05:38:56.818Z,4.57
2022-10-28T05:41:24.933Z,5.72
2022-10-28T05:43:52.068Z,4.70
2022-10-28T05:46:18.678Z,5.47
2022-10-28T05:48:45.390Z,5.00
2022-10-28T05:51:13.425Z,5.88
2022-10-28T05:53:44.208Z,4.72
2022-10-28T05:56:11.082Z,4.93
2022-10-28T05:58:37.653Z,4.40
2022-10-28T06:01:09.461Z,5.27
2022-10-28T06:03:36.226Z,5.80
2022-10-28T06:06:02.978Z,5.50
2022-10-28T06:08:30.778Z,5.57
2022-10-28T06:10:56.124Z,4.27
2022-10-28T06:13:23.773Z,4.80
2022-10-28T06:15:52.073Z,5.77
2022-10-28T06:18:19.129Z,5.73
2022-10-28T06:20:56.994Z,4.93
2022-10-28T06:23:24.963Z,5.20
2022-10-28T06:26:00.322Z,5.50
2022-10-28T06:28:27.399Z,5.78
2022-10-28T06:30:59.706Z,6.87
2022-10-28T06:33:26.182Z,7.10
2022-10-28T06:35:56.779Z,6.10
2022-10-28T06:38:24.756Z,5.97
2022-10-28T06:40:52.523Z,6.03
2022-10-28T06:43:20.706Z,5.97
2022-10-28T06:45:52.142Z,6.37
2022-10-28T06:48:20.268Z,6.53
2022-10-28T06:50:46.845Z,6.45
2022-10-28T06:53:14.501Z,6.00
2022-10-28T06:55:42.530Z,5.70
2022-10-28T06:58:10.306Z,5.83
2022-10-28T07:00:36.950Z,6.30
2022-10-28T07:03:04.540Z,5.93
2022-10-28T07:05:32.880Z,4.73
2022-10-28T07:08:00.491Z,5.07
2022-10-28T07:10:27.166Z,4.73
2022-10-28T07:12:54.027Z,5.57
2022-10-28T07:15:21.898Z,4.67
2022-10-28T07:17:59.555Z,4.40
2022-10-28T07:20:27.703Z,5.10
2022-10-28T07:23:02.234Z,4.70
2022-10-28T07:25:30.844Z,4.50
2022-10-28T07:28:00.415Z,4.00
2022-10-28T07:30:27.716Z,4.37
2022-10-28T07:32:55.107Z,4.37
2022-10-28T07:35:22.165Z,4.00
2022-10-28T07:37:48.643Z,3.90
2022-10-28T07:40:15.219Z,4.68
2022-10-28T07:42:42.187Z,4.60
2022-10-28T07:45:10.047Z,4.93
2022-10-28T07:47:38.833Z,5.80
2022-10-28T07:50:11.330Z,5.60
2022-10-28T07:52:38.777Z,5.15
2022-10-28T07:55:08.014Z,4.53
2022-10-28T07:57:35.457Z,4.43
2022-10-28T08:00:05.164Z,4.65
2022-10-28T08:02:37.803Z,4.53
2022-10-28T08:05:05.127Z,4.40
2022-10-28T08:07:34.875Z,4.45
2022-10-28T08:10:04.945Z,4.77
2022-10-28T08:12:32.468Z,4.30
2022-10-28T08:14:59.657Z,3.83
2022-10-28T08:17:26.339Z,5.00
2022-10-28T08:19:52.887Z,4.82
2022-10-28T08:22:19.453Z,4.82
2022-10-28T08:24:46.066Z,4.30
2022-10-28T08:27:12.597Z,3.97
2022-10-28T08:29:39.188Z,4.32
2022-10-28T08:32:08.987Z,4.07
2022-10-28T08:34:38.003Z,3.90
2022-10-28T08:37:07.677Z,4.15
2022-10-28T08:39:35.050Z,5.03
2022-10-28T08:42:23.654Z,3.83
2022-10-28T08:44:57.221Z,4.90
2022-10-28T08:47:48.398Z,4.13
2022-10-28T08:50:18.554Z,4.10
2022-10-28T08:52:56.831Z,4.75
2022-10-28T08:55:29.910Z,3.85
2022-10-28T08:58:10.857Z,4.55
2022-10-28T09:00:38.597Z,4.57
2022-10-28T09:03:11.172Z,4.38
2022-10-28T09:05:39.583Z,4.53
2022-10-28T09:08:09.179Z,4.28
2022-10-28T09:10:35.887Z,5.05
2022-10-28T09:13:57.358Z,3.97
2022-10-28T09:16:46.339Z,3.80
2022-10-28T09:19:27.409Z,3.78
2022-10-28T09:22:29.439Z,3.40
2022-10-28T09:25:02.141Z,3.58
2022-10-28T09:27:52.541Z,3.45
2022-10-28T09:30:36.862Z,3.88
2022-10-28T09:33:21.992Z,3.40
2022-10-28T09:35:50.561Z,3.83
2022-10-28T09:38:19.271Z,3.15
2022-10-28T09:40:53.253Z,2.88
2022-10-28T09:43:28.222Z,3.22
2022-10-28T09:46:00.861Z,3.58
2022-10-28T09:48:45.559Z,3.25
2022-10-28T09:51:50.804Z,3.13
2022-10-28T09:54:27.806Z,3.72
2022-10-28T09:56:55.003Z,2.72
2022-10-28T09:59:22.106Z,3.10
2022-10-28T10:01:50.553Z,3.20
2022-10-28T10:04:23.188Z,3.67
2022-10-28T10:06:55.533Z,3.40
2022-10-28T10:09:26.829Z,3.17
2022-10-28T10:11:59.706Z,3.38
2022-10-28T10:14:34.484Z,3.17
2022-10-28T10:17:06.677Z,3.03
2022-10-28T10:20:11.550Z,3.00
2022-10-28T10:22:43.590Z,3.40
2022-10-28T10:25:19.460Z,2.75
2022-10-28T10:27:57.523Z,3.50
2022-10-28T10:30:40.159Z,2.85
2022-10-28T10:33:35.577Z,3.00
2022-10-28T10:36:03.908Z,2.65
2022-10-28T10:38:34.242Z,2.70
2022-10-28T10:41:01.104Z,2.50
2022-10-28T10:43:27.501Z,2.28
2022-10-28T10:46:06.600Z,2.10
2022-10-28T10:48:36.732Z,2.90
2022-10-28T10:51:23.806Z,2.50
2022-10-28T10:53:55.730Z,2.40
2022-10-28T10:56:32.582Z,2.40
2022-10-28T10:59:02.973Z,2.50
2022-10-28T11:01:36.166Z,2.88
2022-10-28T11:04:08.491Z,2.67
2022-10-28T11:06:42.330Z,2.45
2022-10-28T11:09:27.293Z,2.45
2022-10-28T11:11:56.897Z,2.85
2022-10-28T11:14:32.645Z,2.50
2022-10-28T11:17:01.660Z,2.70
2022-10-28T11:19:36.576Z,2.20
2022-10-28T11:22:24.832Z,2.42
2022-10-28T11:25:19.271Z,2.83
2022-10-28T11:28:16.636Z,2.78
2022-10-28T11:30:50.418Z,2.15
2022-10-28T11:33:29.902Z,2.53
2022-10-28T11:36:02.972Z,2.60
2022-10-28T11:39:02.014Z,2.97
2022-10-28T11:41:58.759Z,2.70
2022-10-28T11:44:47.216Z,2.50
2022-10-28T11:47:30.953Z,3.20
2022-10-28T11:50:49.191Z,2.83
2022-10-28T11:53:32.447Z,3.00
2022-10-28T11:56:18.186Z,2.60
2022-10-28T11:58:56.373Z,2.83
2022-10-28T12:01:26.201Z,2.60
2022-10-28T12:04:14.538Z,3.00
2022-10-28T12:07:01.359Z,2.92
2022-10-28T12:09:52.071Z,2.42
2022-10-28T12:12:29.182Z,2.80
2022-10-28T12:15:15.717Z,2.67
2022-10-28T12:17:52.968Z,2.72
2022-10-28T12:20:40.150Z,2.80
2022-10-28T12:23:14.202Z,2.70
2022-10-28T12:25:43.666Z,3.35
2022-10-28T12:28:40.740Z,2.17
2022-10-28T12:31:18.457Z,2.80
2022-10-28T12:33:51.644Z,2.78
2022-10-28T12:36:27.656Z,2.97
2022-10-28T12:39:00.444Z,2.83
2022-10-28T12:41:43.458Z,3.47
2022-10-28T12:44:16.280Z,2.80
2022-10-28T12:47:11.050Z,2.95
2022-10-28T12:49:52.868Z,2.88
2022-10-28T12:52:40.807Z,3.13
2022-10-28T12:57:54.076Z,2.75
2022-10-28T13:00:28.200Z,3.40
2022-10-28T13:03:10.937Z,2.65
2022-10-28T13:06:00.988Z,3.05
2022-10-28T13:08:44.165Z,3.08
2022-10-28T13:11:20.638Z,2.92
2022-10-28T13:13:57.619Z,2.78
2022-10-28T13:16:46.141Z,2.78
2022-10-28T13:19:50.878Z,2.75
2022-10-28T13:25:06.644Z,2.92
2022-10-28T13:27:33.874Z,2.83
2022-10-28T13:30:03.035Z,2.67
2022-10-28T13:32:40.483Z,2.92
2022-10-28T13:35:20.979Z,2.20
2022-10-28T13:37:50.926Z,3.03
2022-10-28T13:40:46.802Z,2.83
2022-10-28T13:43:21.533Z,2.72
2022-10-28T13:45:56.507Z,2.80
2022-10-28T13:48:29.271Z,3.03
2022-10-28T13:51:16.361Z,2.75
2022-10-28T13:53:46.282Z,2.58
2022-10-28T13:56:28.456Z,2.78
2022-10-28T13:58:59.279Z,3.13
2022-10-28T14:01:41.597Z,3.38
2022-10-28T14:04:38.930Z,3.25
2022-10-28T14:07:20.464Z,3.40
2022-10-28T14:09:50.129Z,3.40
2022-10-28T14:12:26.903Z,2.97
2022-10-28T14:14:59.221Z,3.13
2022-10-28T14:17:38.382Z,2.83
2022-10-28T14:20:20.451Z,3.03
2022-10-28T14:22:47.295Z,3.25
2022-10-28T14:25:48.551Z,3.20
2022-10-28T14:28:27.056Z,2.90
2022-10-28T14:31:09.262Z,3.30
2022-10-28T14:33:36.634Z,3.20
2022-10-28T14:36:18.434Z,3.35
2022-10-28T14:39:03.619Z,3.28
2022-10-28T14:41:58.132Z,3.63
2022-10-28T14:45:13.519Z,3.15
2022-10-28T14:48:17.751Z,2.78
2022-10-28T14:50:49.609Z,2.92
2022-10-28T14:53:33.935Z,2.90
2022-10-28T14:56:08.109Z,3.22
2022-10-28T14:58:41.704Z,2.90
2022-10-28T15:01:18.350Z,3.10
2022-10-28T15:03:52.180Z,2.67
2022-10-28T15:06:30.132Z,3.50
2022-10-28T15:09:06.792Z,2.83
2022-10-28T15:11:34.456Z,3.10
2022-10-28T15:14:30.825Z,3.20
2022-10-28T15:17:00.562Z,2.83
2022-10-28T15:19:34.079Z,3.28
2022-10-28T15:22:02.624Z,3.22
2022-10-28T15:24:29.676Z,2.80
2022-10-28T15:26:56.927Z,3.30
2022-10-28T15:29:24.773Z,2.85
2022-10-28T15:32:04.707Z,4.25
2022-10-28T15:34:32.336Z,4.38
2022-10-28T15:37:00.328Z,4.70
2022-10-28T15:39:27.261Z,4.53
2022-10-28T15:41:54.780Z,4.22
2022-10-28T15:44:38.573Z,4.80
2022-10-28T15:47:25.803Z,3.80
2022-10-28T15:50:21.404Z,4.10
2022-10-28T15:52:52.041Z,4.28
2022-10-28T15:55:18.706Z,3.75
2022-10-28T15:57:49.306Z,3.38
2022-10-28T16:00:23.464Z,4.25
2022-10-28T16:02:56.288Z,4.35
2022-10-28T16:05:43.116Z,6.07
2022-10-28T16:08:20.344Z,7.50
2022-10-28T16:10:50.435Z,6.88
2022-10-28T16:13:36.188Z,5.85
2022-10-28T16:16:07.803Z,5.50
2022-10-28T16:18:42.629Z,5.45
2022-10-28T16:21:17.874Z,4.47
2022-10-28T16:23:48.354Z,5.40
2022-10-28T16:26:15.474Z,5.97
2022-10-28T16:28:45.291Z,5.53
2022-10-28T16:31:16.300Z,5.43
2022-10-28T16:33:43.517Z,6.45
2022-10-28T16:36:10.376Z,6.68
2022-10-28T16:38:37.403Z,5.43
2022-10-28T16:41:05.750Z,4.97
2022-10-28T16:43:32.679Z,5.07
2022-10-28T16:46:00.397Z,4.50
2022-10-28T16:48:29.297Z,3.80
2022-10-28T16:51:00.741Z,3.83
2022-10-28T16:53:28.294Z,3.55
2022-10-28T16:55:58.925Z,3.53
2022-10-28T16:58:27.157Z,4.03
2022-10-28T17:00:54.228Z,4.28
2022-10-28T17:03:21.116Z,5.15
2022-10-28T17:05:47.759Z,4.93
2022-10-28T17:08:14.943Z,8.15
2022-10-28T17:10:42.462Z,10.95
2022-10-28T17:13:13.803Z,10.02
2022-10-28T17:15:41.375Z,7.45
2022-10-28T17:18:10.957Z,6.93
2022-10-28T17:20:37.522Z,6.95
2022-10-28T17:23:05.525Z,6.65
2022-10-28T17:25:32.110Z,8.35
2022-10-28T17:27:58.908Z,8.73
2022-10-28T17:30:26.738Z,10.95
2022-10-28T17:32:54.233Z,9.38
2022-10-28T17:35:22.308Z,9.65
2022-10-28T17:37:52.142Z,11.98
2022-10-28T17:40:18.988Z,14.68
2022-10-28T17:42:45.848Z,15.98
2022-10-28T17:45:14.434Z,16.38
2022-10-28T17:47:44.322Z,13.85
2022-10-28T17:50:11.079Z,11.40
2022-10-28T17:52:38.660Z,10.30
2022-10-28T17:55:06.087Z,11.23
2022-10-28T17:57:32.576Z,10.70
2022-10-28T17:59:59.363Z,10.38
2022-10-28T18:02:26.161Z,11.27
2022-10-28T18:04:52.759Z,9.90
2022-10-28T18:07:19.467Z,9.40
2022-10-28T18:09:46.030Z,10.32
2022-10-28T18:12:13.702Z,10.82
2022-10-28T18:14:40.189Z,8.35
2022-10-28T18:17:06.778Z,7.75
2022-10-28T18:19:33.716Z,8.07
2022-10-28T18:22:00.313Z,10.82
2022-10-28T18:24:26.840Z,10.38
2022-10-28T18:26:54.279Z,8.57
2022-10-28T18:29:20.743Z,7.57
2022-10-28T18:31:47.447Z,6.80
2022-10-28T18:34:14.177Z,5.10
2022-10-28T18:36:40.840Z,7.78
2022-10-28T18:39:08.134Z,6.05
2022-10-28T18:41:40.202Z,5.32
2022-10-28T18:44:11.492Z,6.25
2022-10-28T18:46:38.300Z,7.55
2022-10-28T18:49:07.754Z,7.97
2022-10-28T18:51:34.872Z,8.65
2022-10-28T18:54:01.628Z,6.20
2022-10-28T18:56:29.561Z,6.22
2022-10-28T18:58:57.632Z,5.68
2022-10-28T19:01:26.939Z,5.80
2022-10-28T19:03:56.813Z,6.10
2022-10-28T19:06:24.590Z,5.97
2022-10-28T19:08:56.185Z,5.00
2022-10-28T19:11:30.774Z,5.15
2022-10-28T19:13:59.623Z,4.82
2022-10-28T19:16:27.596Z,4.90
2022-10-28T19:18:58.427Z,5.07
2022-10-28T19:21:26.516Z,4.57
2022-10-28T19:23:55.060Z,4.50
2022-10-28T19:26:23.208Z,4.53
2022-10-28T19:28:51.832Z,4.32
2022-10-28T19:31:21.039Z,4.20
2022-10-28T19:33:48.014Z,3.80
2022-10-28T19:36:15.592Z,5.38
2022-10-28T19:38:42.166Z,5.22
2022-10-28T19:41:12.842Z,5.40
2022-10-28T19:43:40.881Z,5.40
2022-10-28T19:46:13.688Z,4.07
2022-10-28T19:48:42.191Z,4.45
2022-10-28T19:51:13.687Z,4.25
2022-10-28T19:53:40.518Z,3.92
2022-10-28T19:56:07.837Z,4.10
2022-10-28T19:58:35.141Z,3.85
2022-10-28T20:01:04.684Z,4.40
2022-10-28T20:03:34.578Z,5.75
2022-10-28T20:06:06.176Z,9.85
2022-10-28T20:08:37.968Z,7.15
2022-10-28T20:11:11.683Z,6.05
2022-10-28T20:13:39.060Z,5.10
2022-10-28T20:16:09.580Z,4.75
2022-10-28T20:18:36.788Z,4.47
2022-10-28T20:21:09.474Z,4.80
2022-10-28T20:23:35.990Z,5.60
2022-10-28T20:26:04.022Z,5.82
2022-10-28T20:28:30.770Z,5.18
2022-10-28T20:31:02.903Z,5.30
2022-10-28T20:33:30.612Z,4.47
2022-10-28T20:35:58.103Z,5.25
2022-10-28T20:38:25.509Z,4.38
2022-10-28T20:40:55.424Z,4.50
2022-10-28T20:43:23.656Z,5.20
2022-10-28T20:45:53.132Z,5.00
2022-10-28T20:48:20.822Z,4.60
2022-10-28T20:50:55.522Z,4.75
2022-10-28T20:53:23.376Z,5.15
2022-10-28T20:55:51.554Z,5.68
2022-10-28T20:58:19.399Z,5.70
2022-10-28T21:00:46.140Z,4.70
2022-10-28T21:03:13.176Z,5.93
2022-10-28T21:05:40.549Z,5.05
2022-10-28T21:08:07.097Z,5.13
2022-10-28T21:10:35.058Z,5.47
2022-10-28T21:13:01.960Z,5.63
2022-10-28T21:15:28.650Z,5.90
2022-10-28T21:17:55.537Z,5.25
2022-10-28T21:20:22.423Z,6.00
2022-10-28T21:22:49.232Z,6.05
2022-10-28T21:25:15.831Z,6.38
2022-10-28T21:27:42.354Z,5.40
2022-10-28T21:30:09.856Z,5.20
2022-10-28T21:32:37.159Z,5.32
2022-10-28T21:35:05.716Z,5.10
2022-10-28T21:37:33.078Z,5.88
2022-10-28T21:40:01.174Z,4.75
2022-10-28T21:42:27.809Z,4.88
2022-10-28T21:44:54.321Z,5.07
2022-10-28T21:49:52.195Z,5.43
2022-10-28T21:52:19.046Z,6.10
2022-10-28T21:54:45.675Z,5.60
2022-10-28T21:57:12.874Z,5.90
2022-10-28T21:59:39.290Z,5.38
2022-10-28T22:02:05.855Z,5.22
2022-10-28T22:04:32.434Z,5.30
2022-10-28T22:06:59.009Z,5.00
2022-10-28T22:09:25.396Z,5.45
2022-10-28T22:11:51.874Z,5.72
2022-10-28T22:14:18.574Z,5.03
2022-10-28T22:16:45.028Z,6.25
2022-10-28T22:19:14.622Z,5.70
2022-10-28T22:21:41.069Z,6.05
2022-10-28T22:24:08.099Z,5.72
2022-10-28T22:26:34.822Z,6.05
2022-10-28T22:29:01.508Z,6.15
2022-10-28T22:31:31.332Z,5.85
2022-10-28T22:33:58.552Z,6.22
2022-10-28T22:36:27.784Z,6.15
2022-10-28T22:38:54.389Z,6.53
2022-10-28T22:41:23.072Z,6.00
2022-10-28T22:43:52.490Z,6.70
2022-10-28T22:46:19.510Z,6.45
2022-10-28T22:48:46.755Z,5.47
2022-10-28T22:51:13.687Z,5.63
2022-10-28T22:53:40.473Z,5.67
2022-10-28T22:56:10.750Z,5.57
2022-10-28T22:58:37.185Z,5.18
2022-10-28T23:01:16.288Z,6.35
2022-10-28T23:03:45.617Z,7.22
2022-10-28T23:06:14.213Z,7.30
2022-10-28T23:08:42.391Z,8.05
2022-10-28T23:11:13.687Z,7.20
2022-10-28T23:13:40.153Z,6.82
2022-10-28T23:16:08.925Z,6.32
2022-10-28T23:18:35.669Z,6.40
2022-10-28T23:21:28.500Z,6.28
2022-10-28T23:23:57.053Z,5.93
2022-10-28T23:26:24.465Z,6.55
2022-10-28T23:28:53.269Z,5.40
2022-10-28T23:31:20.938Z,6.00
2022-10-28T23:33:47.683Z,5.80
2022-10-28T23:36:15.791Z,6.33
2022-10-28T23:38:42.291Z,5.80
2022-10-28T23:41:15.987Z,6.37
2022-10-28T23:43:42.788Z,6.68
2022-10-28T23:46:10.151Z,6.33
2022-10-28T23:48:36.786Z,5.83
2022-10-28T23:51:03.648Z,6.40
2022-10-28T23:53:30.621Z,5.50
2022-10-28T23:55:57.629Z,6.20
2022-10-28T23:58:24.124Z,6.63
